Terminal Aerodrome Forecast
Issued by NWS

Home | Current Version | Previous Version | Text Only | Print | Product List | Glossary On
Versions: 1 2 3 4 5 6 7 8 9 10 11 12 13 14 15 16 17 18 19
000
FTUS43 KOAX 060557 CCA
TAFBFF
TAF COR
KBFF 060557Z 0606/0706 12015KT 6SM -RA BR BKN007 OVC030
     FM060800 10008KT 1SM -RA BR BKN003 OVC005
     FM061200 09007KT 2SM RA BR OVC003
     FM061900 VRB05KT P6SM VCSH SCT005 OVC015=

USA.gov is the U.S. government's official web portal to all federal, state and local government web resources and services.